sensor_id;sensor_type;location;lat;lon;timestamp;P1;durP1;ratioP1;P2;durP2;ratioP2
17965;SDS011;9108;53.204;10.424;2023-07-13T00:00:24;10.17;;;5.63;;
17965;SDS011;9108;53.204;10.424;2023-07-13T00:02:52;11.40;;;5.57;;
17965;SDS011;9108;53.204;10.424;2023-07-13T00:05:20;11.48;;;5.43;;
17965;SDS011;9108;53.204;10.424;2023-07-13T00:07:47;11.77;;;5.78;;
17965;SDS011;9108;53.204;10.424;2023-07-13T00:10:15;10.30;;;5.60;;
17965;SDS011;9108;53.204;10.424;2023-07-13T00:12:43;11.67;;;5.30;;
17965;SDS011;9108;53.204;10.424;2023-07-13T00:15:14;11.25;;;5.35;;
17965;SDS011;9108;53.204;10.424;2023-07-13T00:17:42;9.48;;;5.18;;
17965;SDS011;9108;53.204;10.424;2023-07-13T00:20:11;11.80;;;5.53;;
17965;SDS011;9108;53.204;10.424;2023-07-13T00:22:38;11.32;;;5.50;;
17965;SDS011;9108;53.204;10.424;2023-07-13T00:25:06;10.95;;;5.72;;
17965;SDS011;9108;53.204;10.424;2023-07-13T00:27:35;8.40;;;5.28;;
17965;SDS011;9108;53.204;10.424;2023-07-13T00:30:05;8.83;;;5.10;;
17965;SDS011;9108;53.204;10.424;2023-07-13T00:32:34;9.85;;;5.07;;
17965;SDS011;9108;53.204;10.424;2023-07-13T00:35:01;7.22;;;5.10;;
17965;SDS011;9108;53.204;10.424;2023-07-13T00:37:29;9.30;;;5.22;;
17965;SDS011;9108;53.204;10.424;2023-07-13T00:39:57;9.00;;;5.05;;
17965;SDS011;9108;53.204;10.424;2023-07-13T00:42:24;11.50;;;5.40;;
17965;SDS011;9108;53.204;10.424;2023-07-13T00:45:06;9.50;;;4.80;;
17965;SDS011;9108;53.204;10.424;2023-07-13T00:47:33;8.43;;;4.88;;
17965;SDS011;9108;53.204;10.424;2023-07-13T00:50:00;13.45;;;5.50;;
17965;SDS011;9108;53.204;10.424;2023-07-13T00:52:30;9.02;;;5.07;;
17965;SDS011;9108;53.204;10.424;2023-07-13T00:54:57;9.38;;;5.28;;
17965;SDS011;9108;53.204;10.424;2023-07-13T00:57:34;11.32;;;4.90;;
17965;SDS011;9108;53.204;10.424;2023-07-13T01:00:03;10.77;;;5.20;;
17965;SDS011;9108;53.204;10.424;2023-07-13T01:02:35;9.70;;;5.20;;
17965;SDS011;9108;53.204;10.424;2023-07-13T01:05:07;10.77;;;5.50;;
17965;SDS011;9108;53.204;10.424;2023-07-13T01:07:35;10.38;;;5.32;;
17965;SDS011;9108;53.204;10.424;2023-07-13T01:10:02;10.07;;;5.50;;
17965;SDS011;9108;53.204;10.424;2023-07-13T01:12:29;12.52;;;5.80;;
17965;SDS011;9108;53.204;10.424;2023-07-13T01:14:57;11.48;;;5.35;;
17965;SDS011;9108;53.204;10.424;2023-07-13T01:17:25;10.38;;;5.20;;
17965;SDS011;9108;53.204;10.424;2023-07-13T01:19:55;12.23;;;5.78;;
17965;SDS011;9108;53.204;10.424;2023-07-13T01:22:26;8.57;;;5.80;;
17965;SDS011;9108;53.204;10.424;2023-07-13T01:24:53;16.08;;;6.50;;
17965;SDS011;9108;53.204;10.424;2023-07-13T01:27:23;14.52;;;6.63;;
17965;SDS011;9108;53.204;10.424;2023-07-13T01:29:52;13.38;;;6.47;;
17965;SDS011;9108;53.204;10.424;2023-07-13T01:32:27;16.40;;;7.35;;
17965;SDS011;9108;53.204;10.424;2023-07-13T01:34:56;15.97;;;7.70;;
17965;SDS011;9108;53.204;10.424;2023-07-13T01:37:24;12.93;;;6.57;;
17965;SDS011;9108;53.204;10.424;2023-07-13T01:39:53;13.27;;;6.67;;
17965;SDS011;9108;53.204;10.424;2023-07-13T01:42:20;13.63;;;6.88;;
17965;SDS011;9108;53.204;10.424;2023-07-13T01:44:47;13.95;;;6.57;;
17965;SDS011;9108;53.204;10.424;2023-07-13T01:47:15;13.32;;;6.63;;
17965;SDS011;9108;53.204;10.424;2023-07-13T01:49:42;17.10;;;7.80;;
17965;SDS011;9108;53.204;10.424;2023-07-13T01:52:11;19.13;;;8.40;;
17965;SDS011;9108;53.204;10.424;2023-07-13T01:54:38;15.63;;;8.23;;
17965;SDS011;9108;53.204;10.424;2023-07-13T01:57:06;14.57;;;8.20;;
17965;SDS011;9108;53.204;10.424;2023-07-13T01:59:33;16.33;;;8.40;;
17965;SDS011;9108;53.204;10.424;2023-07-13T02:02:00;14.00;;;7.65;;
17965;SDS011;9108;53.204;10.424;2023-07-13T02:04:28;11.98;;;7.18;;
17965;SDS011;9108;53.204;10.424;2023-07-13T02:06:55;15.07;;;6.90;;
17965;SDS011;9108;53.204;10.424;2023-07-13T02:09:22;12.50;;;7.05;;
17965;SDS011;9108;53.204;10.424;2023-07-13T02:11:49;13.32;;;7.40;;
17965;SDS011;9108;53.204;10.424;2023-07-13T02:14:17;16.17;;;6.90;;
17965;SDS011;9108;53.204;10.424;2023-07-13T02:16:45;13.70;;;6.80;;
17965;SDS011;9108;53.204;10.424;2023-07-13T02:19:13;14.85;;;7.05;;
17965;SDS011;9108;53.204;10.424;2023-07-13T02:21:40;13.15;;;6.88;;
17965;SDS011;9108;53.204;10.424;2023-07-13T02:24:07;9.98;;;6.30;;
17965;SDS011;9108;53.204;10.424;2023-07-13T02:26:34;10.35;;;6.38;;
17965;SDS011;9108;53.204;10.424;2023-07-13T02:29:02;11.10;;;6.43;;
17965;SDS011;9108;53.204;10.424;2023-07-13T02:31:30;14.88;;;6.93;;
17965;SDS011;9108;53.204;10.424;2023-07-13T02:33:57;11.85;;;6.82;;
17965;SDS011;9108;53.204;10.424;2023-07-13T02:36:24;9.10;;;5.88;;
17965;SDS011;9108;53.204;10.424;2023-07-13T02:38:51;10.48;;;6.20;;
17965;SDS011;9108;53.204;10.424;2023-07-13T02:41:18;9.63;;;6.10;;
17965;SDS011;9108;53.204;10.424;2023-07-13T02:43:46;8.30;;;6.10;;
17965;SDS011;9108;53.204;10.424;2023-07-13T02:46:13;11.35;;;6.50;;
17965;SDS011;9108;53.204;10.424;2023-07-13T02:48:41;10.65;;;6.65;;
17965;SDS011;9108;53.204;10.424;2023-07-13T02:51:08;12.35;;;6.80;;
17965;SDS011;9108;53.204;10.424;2023-07-13T02:53:35;9.48;;;6.53;;
17965;SDS011;9108;53.204;10.424;2023-07-13T02:56:03;11.75;;;6.60;;
17965;SDS011;9108;53.204;10.424;2023-07-13T02:58:30;12.45;;;6.55;;
17965;SDS011;9108;53.204;10.424;2023-07-13T03:00:57;10.77;;;6.90;;
17965;SDS011;9108;53.204;10.424;2023-07-13T03:03:24;13.93;;;7.03;;
17965;SDS011;9108;53.204;10.424;2023-07-13T03:05:58;18.95;;;7.70;;
17965;SDS011;9108;53.204;10.424;2023-07-13T03:08:27;13.43;;;7.97;;
17965;SDS011;9108;53.204;10.424;2023-07-13T03:10:58;14.52;;;8.38;;
17965;SDS011;9108;53.204;10.424;2023-07-13T03:13:26;15.75;;;8.45;;
17965;SDS011;9108;53.204;10.424;2023-07-13T03:15:53;16.73;;;8.48;;
17965;SDS011;9108;53.204;10.424;2023-07-13T03:18:20;13.20;;;7.85;;
17965;SDS011;9108;53.204;10.424;2023-07-13T03:20:49;15.33;;;7.90;;
17965;SDS011;9108;53.204;10.424;2023-07-13T03:23:19;13.48;;;7.43;;
17965;SDS011;9108;53.204;10.424;2023-07-13T03:25:46;11.25;;;6.80;;
17965;SDS011;9108;53.204;10.424;2023-07-13T03:28:13;11.63;;;6.63;;
17965;SDS011;9108;53.204;10.424;2023-07-13T03:30:41;12.80;;;6.70;;
17965;SDS011;9108;53.204;10.424;2023-07-13T03:33:08;13.37;;;6.83;;
17965;SDS011;9108;53.204;10.424;2023-07-13T03:35:35;11.88;;;6.93;;
17965;SDS011;9108;53.204;10.424;2023-07-13T03:38:07;14.90;;;6.82;;
17965;SDS011;9108;53.204;10.424;2023-07-13T03:40:35;13.75;;;6.88;;
17965;SDS011;9108;53.204;10.424;2023-07-13T03:43:03;13.65;;;6.47;;
17965;SDS011;9108;53.204;10.424;2023-07-13T03:45:30;14.02;;;6.72;;
17965;SDS011;9108;53.204;10.424;2023-07-13T03:47:57;13.20;;;6.63;;
17965;SDS011;9108;53.204;10.424;2023-07-13T03:50:24;10.88;;;6.35;;
17965;SDS011;9108;53.204;10.424;2023-07-13T03:52:51;12.45;;;6.60;;
17965;SDS011;9108;53.204;10.424;2023-07-13T03:55:18;14.55;;;6.28;;
17965;SDS011;9108;53.204;10.424;2023-07-13T03:57:47;15.10;;;6.37;;
17965;SDS011;9108;53.204;10.424;2023-07-13T04:00:15;10.93;;;5.80;;
17965;SDS011;9108;53.204;10.424;2023-07-13T04:02:42;12.77;;;5.55;;
17965;SDS011;9108;53.204;10.424;2023-07-13T04:05:10;10.20;;;5.15;;
17965;SDS011;9108;53.204;10.424;2023-07-13T04:07:37;9.35;;;4.50;;
17965;SDS011;9108;53.204;10.424;2023-07-13T04:10:04;10.32;;;4.88;;
17965;SDS011;9108;53.204;10.424;2023-07-13T04:12:32;9.35;;;4.45;;
17965;SDS011;9108;53.204;10.424;2023-07-13T04:15:00;8.32;;;3.90;;
17965;SDS011;9108;53.204;10.424;2023-07-13T04:17:27;10.93;;;4.03;;
17965;SDS011;9108;53.204;10.424;2023-07-13T04:19:54;9.97;;;4.13;;
17965;SDS011;9108;53.204;10.424;2023-07-13T04:22:21;8.07;;;3.72;;
17965;SDS011;9108;53.204;10.424;2023-07-13T04:24:49;10.80;;;3.65;;
17965;SDS011;9108;53.204;10.424;2023-07-13T04:27:16;7.40;;;3.42;;
17965;SDS011;9108;53.204;10.424;2023-07-13T04:29:43;10.65;;;3.60;;
17965;SDS011;9108;53.204;10.424;2023-07-13T04:32:11;9.63;;;3.20;;
17965;SDS011;9108;53.204;10.424;2023-07-13T04:34:39;8.17;;;3.50;;
17965;SDS011;9108;53.204;10.424;2023-07-13T04:37:06;8.52;;;3.58;;
17965;SDS011;9108;53.204;10.424;2023-07-13T04:39:36;7.47;;;3.42;;
17965;SDS011;9108;53.204;10.424;2023-07-13T04:42:03;11.10;;;3.60;;
17965;SDS011;9108;53.204;10.424;2023-07-13T04:44:30;13.18;;;3.80;;
17965;SDS011;9108;53.204;10.424;2023-07-13T04:46:57;11.90;;;3.70;;
17965;SDS011;9108;53.204;10.424;2023-07-13T04:49:26;8.23;;;3.40;;
17965;SDS011;9108;53.204;10.424;2023-07-13T04:51:54;7.65;;;3.20;;
17965;SDS011;9108;53.204;10.424;2023-07-13T04:54:22;8.18;;;3.10;;
17965;SDS011;9108;53.204;10.424;2023-07-13T04:56:49;9.93;;;3.00;;
17965;SDS011;9108;53.204;10.424;2023-07-13T04:59:16;9.27;;;2.75;;
17965;SDS011;9108;53.204;10.424;2023-07-13T05:01:43;10.23;;;2.80;;
17965;SDS011;9108;53.204;10.424;2023-07-13T05:04:11;7.05;;;2.50;;
17965;SDS011;9108;53.204;10.424;2023-07-13T05:06:39;6.87;;;2.40;;
17965;SDS011;9108;53.204;10.424;2023-07-13T05:09:06;7.13;;;2.63;;
17965;SDS011;9108;53.204;10.424;2023-07-13T05:11:34;7.38;;;2.65;;
17965;SDS011;9108;53.204;10.424;2023-07-13T05:14:01;9.33;;;2.50;;
17965;SDS011;9108;53.204;10.424;2023-07-13T05:16:28;7.82;;;2.55;;
17965;SDS011;9108;53.204;10.424;2023-07-13T05:18:56;9.45;;;2.65;;
17965;SDS011;9108;53.204;10.424;2023-07-13T05:21:24;8.05;;;2.40;;
17965;SDS011;9108;53.204;10.424;2023-07-13T05:23:52;7.45;;;2.13;;
17965;SDS011;9108;53.204;10.424;2023-07-13T05:26:19;8.20;;;2.35;;
17965;SDS011;9108;53.204;10.424;2023-07-13T05:28:47;7.40;;;2.30;;
17965;SDS011;9108;53.204;10.424;2023-07-13T05:31:14;8.70;;;2.30;;
17965;SDS011;9108;53.204;10.424;2023-07-13T05:33:41;7.40;;;2.25;;
17965;SDS011;9108;53.204;10.424;2023-07-13T05:36:08;9.50;;;2.25;;
17965;SDS011;9108;53.204;10.424;2023-07-13T05:38:37;10.25;;;2.55;;
17965;SDS011;9108;53.204;10.424;2023-07-13T05:41:08;7.82;;;2.05;;
17965;SDS011;9108;53.204;10.424;2023-07-13T05:43:35;7.35;;;2.00;;
17965;SDS011;9108;53.204;10.424;2023-07-13T05:46:02;11.02;;;2.25;;
17965;SDS011;9108;53.204;10.424;2023-07-13T05:48:32;10.93;;;2.27;;
17965;SDS011;9108;53.204;10.424;2023-07-13T05:51:00;9.13;;;1.90;;
17965;SDS011;9108;53.204;10.424;2023-07-13T05:53:27;8.55;;;1.98;;
17965;SDS011;9108;53.204;10.424;2023-07-13T05:56:04;9.53;;;2.07;;
17965;SDS011;9108;53.204;10.424;2023-07-13T05:58:32;13.13;;;2.38;;
17965;SDS011;9108;53.204;10.424;2023-07-13T06:01:00;8.40;;;2.10;;
17965;SDS011;9108;53.204;10.424;2023-07-13T06:03:34;8.57;;;2.00;;
17965;SDS011;9108;53.204;10.424;2023-07-13T06:06:03;10.68;;;2.20;;
17965;SDS011;9108;53.204;10.424;2023-07-13T06:08:31;8.73;;;2.00;;
17965;SDS011;9108;53.204;10.424;2023-07-13T06:11:02;13.43;;;2.40;;
17965;SDS011;9108;53.204;10.424;2023-07-13T06:13:29;9.80;;;2.13;;
17965;SDS011;9108;53.204;10.424;2023-07-13T06:15:58;11.37;;;2.33;;
17965;SDS011;9108;53.204;10.424;2023-07-13T06:18:25;12.73;;;2.35;;
17965;SDS011;9108;53.204;10.424;2023-07-13T06:20:52;12.17;;;2.23;;
17965;SDS011;9108;53.204;10.424;2023-07-13T06:23:19;15.60;;;2.47;;
17965;SDS011;9108;53.204;10.424;2023-07-13T06:25:53;15.70;;;2.45;;
17965;SDS011;9108;53.204;10.424;2023-07-13T06:28:21;14.68;;;2.60;;
17965;SDS011;9108;53.204;10.424;2023-07-13T06:30:49;11.65;;;2.25;;
17965;SDS011;9108;53.204;10.424;2023-07-13T06:35:59;13.53;;;2.50;;
17965;SDS011;9108;53.204;10.424;2023-07-13T06:38:26;12.75;;;2.45;;
17965;SDS011;9108;53.204;10.424;2023-07-13T06:40:54;11.18;;;2.15;;
17965;SDS011;9108;53.204;10.424;2023-07-13T06:43:21;16.83;;;2.80;;
17965;SDS011;9108;53.204;10.424;2023-07-13T06:45:54;13.52;;;2.22;;
17965;SDS011;9108;53.204;10.424;2023-07-13T06:48:21;11.23;;;2.60;;
17965;SDS011;9108;53.204;10.424;2023-07-13T06:50:55;12.07;;;2.25;;
17965;SDS011;9108;53.204;10.424;2023-07-13T06:53:24;11.57;;;2.42;;
17965;SDS011;9108;53.204;10.424;2023-07-13T06:55:51;11.70;;;2.45;;
17965;SDS011;9108;53.204;10.424;2023-07-13T06:58:18;11.30;;;2.40;;
17965;SDS011;9108;53.204;10.424;2023-07-13T07:00:46;13.07;;;2.40;;
17965;SDS011;9108;53.204;10.424;2023-07-13T07:03:13;14.10;;;2.50;;
17965;SDS011;9108;53.204;10.424;2023-07-13T07:05:40;13.20;;;2.33;;
17965;SDS011;9108;53.204;10.424;2023-07-13T07:08:07;14.10;;;2.60;;
17965;SDS011;9108;53.204;10.424;2023-07-13T07:10:36;14.88;;;2.67;;
17965;SDS011;9108;53.204;10.424;2023-07-13T07:13:03;12.95;;;2.35;;
17965;SDS011;9108;53.204;10.424;2023-07-13T07:15:30;11.70;;;2.33;;
17965;SDS011;9108;53.204;10.424;2023-07-13T07:17:58;12.82;;;2.53;;
17965;SDS011;9108;53.204;10.424;2023-07-13T07:20:25;13.00;;;2.40;;
17965;SDS011;9108;53.204;10.424;2023-07-13T07:22:52;15.15;;;2.42;;
17965;SDS011;9108;53.204;10.424;2023-07-13T07:25:20;15.52;;;2.40;;
17965;SDS011;9108;53.204;10.424;2023-07-13T07:27:51;11.65;;;2.10;;
17965;SDS011;9108;53.204;10.424;2023-07-13T07:30:18;12.45;;;2.60;;
17965;SDS011;9108;53.204;10.424;2023-07-13T07:32:45;15.75;;;2.50;;
17965;SDS011;9108;53.204;10.424;2023-07-13T07:35:12;12.63;;;2.35;;
17965;SDS011;9108;53.204;10.424;2023-07-13T07:37:39;14.05;;;2.60;;
17965;SDS011;9108;53.204;10.424;2023-07-13T07:40:07;13.70;;;2.20;;
17965;SDS011;9108;53.204;10.424;2023-07-13T07:42:35;13.65;;;2.60;;
17965;SDS011;9108;53.204;10.424;2023-07-13T07:45:03;16.48;;;2.50;;
17965;SDS011;9108;53.204;10.424;2023-07-13T07:47:31;12.82;;;2.22;;
17965;SDS011;9108;53.204;10.424;2023-07-13T07:49:58;12.80;;;2.30;;
17965;SDS011;9108;53.204;10.424;2023-07-13T07:52:25;11.23;;;2.33;;
17965;SDS011;9108;53.204;10.424;2023-07-13T07:54:52;11.13;;;2.35;;
17965;SDS011;9108;53.204;10.424;2023-07-13T07:57:20;18.88;;;2.70;;
17965;SDS011;9108;53.204;10.424;2023-07-13T07:59:47;13.75;;;2.20;;
17965;SDS011;9108;53.204;10.424;2023-07-13T08:02:15;13.88;;;2.50;;
17965;SDS011;9108;53.204;10.424;2023-07-13T08:04:43;16.83;;;3.03;;
17965;SDS011;9108;53.204;10.424;2023-07-13T08:07:10;16.00;;;3.07;;
17965;SDS011;9108;53.204;10.424;2023-07-13T08:09:38;15.30;;;2.47;;
17965;SDS011;9108;53.204;10.424;2023-07-13T08:12:05;21.30;;;3.30;;
17965;SDS011;9108;53.204;10.424;2023-07-13T08:14:32;15.55;;;2.60;;
17965;SDS011;9108;53.204;10.424;2023-07-13T08:17:00;14.45;;;2.80;;
17965;SDS011;9108;53.204;10.424;2023-07-13T08:19:28;14.75;;;2.42;;
17965;SDS011;9108;53.204;10.424;2023-07-13T08:21:56;10.50;;;2.38;;
17965;SDS011;9108;53.204;10.424;2023-07-13T08:24:23;11.20;;;2.00;;
17965;SDS011;9108;53.204;10.424;2023-07-13T08:26:51;9.48;;;1.95;;
17965;SDS011;9108;53.204;10.424;2023-07-13T08:29:18;10.40;;;1.95;;
17965;SDS011;9108;53.204;10.424;2023-07-13T08:31:45;11.90;;;2.28;;
17965;SDS011;9108;53.204;10.424;2023-07-13T08:34:12;10.40;;;1.90;;
17965;SDS011;9108;53.204;10.424;2023-07-13T08:36:41;8.52;;;2.17;;
17965;SDS011;9108;53.204;10.424;2023-07-13T08:39:08;12.23;;;2.20;;
17965;SDS011;9108;53.204;10.424;2023-07-13T08:41:35;9.95;;;1.90;;
17965;SDS011;9108;53.204;10.424;2023-07-13T08:44:03;10.23;;;1.90;;
17965;SDS011;9108;53.204;10.424;2023-07-13T08:46:34;12.17;;;2.20;;
17965;SDS011;9108;53.204;10.424;2023-07-13T08:49:03;7.65;;;1.70;;
17965;SDS011;9108;53.204;10.424;2023-07-13T08:51:36;8.67;;;1.53;;
17965;SDS011;9108;53.204;10.424;2023-07-13T08:54:08;10.38;;;2.00;;
17965;SDS011;9108;53.204;10.424;2023-07-13T08:56:37;9.77;;;1.80;;
17965;SDS011;9108;53.204;10.424;2023-07-13T08:59:13;9.93;;;2.10;;
17965;SDS011;9108;53.204;10.424;2023-07-13T09:01:50;9.27;;;1.95;;
17965;SDS011;9108;53.204;10.424;2023-07-13T09:04:21;9.25;;;1.70;;
17965;SDS011;9108;53.204;10.424;2023-07-13T09:06:55;10.55;;;2.13;;
17965;SDS011;9108;53.204;10.424;2023-07-13T09:09:26;9.93;;;1.95;;
17965;SDS011;9108;53.204;10.424;2023-07-13T09:11:59;11.68;;;1.90;;
17965;SDS011;9108;53.204;10.424;2023-07-13T09:14:36;10.15;;;1.80;;
17965;SDS011;9108;53.204;10.424;2023-07-13T09:17:04;10.88;;;1.90;;
17965;SDS011;9108;53.204;10.424;2023-07-13T09:19:32;8.02;;;1.88;;
17965;SDS011;9108;53.204;10.424;2023-07-13T09:22:05;9.35;;;1.83;;
17965;SDS011;9108;53.204;10.424;2023-07-13T09:24:50;9.20;;;1.60;;
17965;SDS011;9108;53.204;10.424;2023-07-13T09:27:21;9.15;;;1.70;;
17965;SDS011;9108;53.204;10.424;2023-07-13T09:29:50;8.05;;;1.80;;
17965;SDS011;9108;53.204;10.424;2023-07-13T09:32:21;9.30;;;1.93;;
17965;SDS011;9108;53.204;10.424;2023-07-13T09:34:50;11.13;;;2.00;;
17965;SDS011;9108;53.204;10.424;2023-07-13T09:37:18;10.30;;;1.98;;
17965;SDS011;9108;53.204;10.424;2023-07-13T09:39:48;7.47;;;1.77;;
17965;SDS011;9108;53.204;10.424;2023-07-13T09:42:17;7.78;;;2.08;;
17965;SDS011;9108;53.204;10.424;2023-07-13T09:44:50;10.93;;;1.77;;
17965;SDS011;9108;53.204;10.424;2023-07-13T09:47:19;10.35;;;2.00;;
17965;SDS011;9108;53.204;10.424;2023-07-13T09:49:49;7.90;;;2.03;;
17965;SDS011;9108;53.204;10.424;2023-07-13T09:52:23;10.10;;;2.10;;
17965;SDS011;9108;53.204;10.424;2023-07-13T09:54:54;11.00;;;1.80;;
17965;SDS011;9108;53.204;10.424;2023-07-13T09:57:24;8.70;;;1.80;;
17965;SDS011;9108;53.204;10.424;2023-07-13T10:41:07;5.68;;;1.63;;
17965;SDS011;9108;53.204;10.424;2023-07-13T10:43:36;6.53;;;1.60;;
17965;SDS011;9108;53.204;10.424;2023-07-13T10:46:04;5.60;;;1.75;;
17965;SDS011;9108;53.204;10.424;2023-07-13T10:48:32;8.15;;;1.98;;
17965;SDS011;9108;53.204;10.424;2023-07-13T10:51:01;6.63;;;1.58;;
17965;SDS011;9108;53.204;10.424;2023-07-13T10:53:31;8.75;;;1.80;;
17965;SDS011;9108;53.204;10.424;2023-07-13T10:55:59;10.07;;;1.90;;
17965;SDS011;9108;53.204;10.424;2023-07-13T10:58:33;7.43;;;1.85;;
17965;SDS011;9108;53.204;10.424;2023-07-13T11:01:03;9.45;;;1.60;;
17965;SDS011;9108;53.204;10.424;2023-07-13T11:03:31;5.82;;;1.50;;
17965;SDS011;9108;53.204;10.424;2023-07-13T11:06:05;6.53;;;1.83;;
17965;SDS011;9108;53.204;10.424;2023-07-13T11:08:35;7.97;;;1.65;;
17965;SDS011;9108;53.204;10.424;2023-07-13T11:11:03;8.70;;;1.60;;
17965;SDS011;9108;53.204;10.424;2023-07-13T11:13:59;7.13;;;1.70;;
17965;SDS011;9108;53.204;10.424;2023-07-13T11:16:49;7.82;;;1.80;;
17965;SDS011;9108;53.204;10.424;2023-07-13T11:22:22;10.67;;;1.80;;
17965;SDS011;9108;53.204;10.424;2023-07-13T11:24:51;5.53;;;1.65;;
17965;SDS011;9108;53.204;10.424;2023-07-13T11:27:22;6.38;;;1.67;;
17965;SDS011;9108;53.204;10.424;2023-07-13T11:29:50;5.85;;;1.50;;
17965;SDS011;9108;53.204;10.424;2023-07-13T11:32:25;7.47;;;1.60;;
17965;SDS011;9108;53.204;10.424;2023-07-13T11:34:56;5.50;;;1.70;;
17965;SDS011;9108;53.204;10.424;2023-07-13T11:37:24;7.87;;;1.50;;
17965;SDS011;9108;53.204;10.424;2023-07-13T11:39:53;6.15;;;1.90;;
17965;SDS011;9108;53.204;10.424;2023-07-13T11:42:21;6.35;;;1.58;;
17965;SDS011;9108;53.204;10.424;2023-07-13T11:44:49;5.20;;;1.63;;
17965;SDS011;9108;53.204;10.424;2023-07-13T11:47:17;4.13;;;1.42;;
17965;SDS011;9108;53.204;10.424;2023-07-13T11:49:48;5.95;;;1.85;;
17965;SDS011;9108;53.204;10.424;2023-07-13T11:52:17;4.78;;;1.70;;
17965;SDS011;9108;53.204;10.424;2023-07-13T11:54:46;5.68;;;1.50;;
17965;SDS011;9108;53.204;10.424;2023-07-13T11:57:19;4.80;;;1.60;;
17965;SDS011;9108;53.204;10.424;2023-07-13T11:59:49;4.93;;;1.55;;
17965;SDS011;9108;53.204;10.424;2023-07-13T12:02:20;5.30;;;1.75;;
17965;SDS011;9108;53.204;10.424;2023-07-13T12:04:52;5.47;;;1.55;;
17965;SDS011;9108;53.204;10.424;2023-07-13T12:07:19;4.97;;;1.40;;
17965;SDS011;9108;53.204;10.424;2023-07-13T12:09:46;5.68;;;1.50;;
17965;SDS011;9108;53.204;10.424;2023-07-13T12:12:17;4.05;;;1.60;;
17965;SDS011;9108;53.204;10.424;2023-07-13T12:14:45;5.57;;;1.80;;
17965;SDS011;9108;53.204;10.424;2023-07-13T12:17:18;5.05;;;1.60;;
17965;SDS011;9108;53.204;10.424;2023-07-13T12:19:45;5.70;;;1.67;;
17965;SDS011;9108;53.204;10.424;2023-07-13T12:22:16;7.07;;;1.70;;
17965;SDS011;9108;53.204;10.424;2023-07-13T12:24:44;4.00;;;1.70;;
17965;SDS011;9108;53.204;10.424;2023-07-13T12:27:18;4.93;;;1.60;;
17965;SDS011;9108;53.204;10.424;2023-07-13T12:29:49;4.53;;;1.50;;
17965;SDS011;9108;53.204;10.424;2023-07-13T12:32:17;5.55;;;1.60;;
17965;SDS011;9108;53.204;10.424;2023-07-13T12:34:51;5.90;;;1.60;;
17965;SDS011;9108;53.204;10.424;2023-07-13T12:37:19;3.90;;;1.50;;
17965;SDS011;9108;53.204;10.424;2023-07-13T12:39:47;5.65;;;1.50;;
17965;SDS011;9108;53.204;10.424;2023-07-13T12:42:19;4.93;;;1.70;;
17965;SDS011;9108;53.204;10.424;2023-07-13T12:44:49;7.32;;;1.77;;
17965;SDS011;9108;53.204;10.424;2023-07-13T12:47:16;4.43;;;1.60;;
17965;SDS011;9108;53.204;10.424;2023-07-13T12:49:48;6.97;;;1.70;;
17965;SDS011;9108;53.204;10.424;2023-07-13T12:52:16;8.05;;;1.70;;
17965;SDS011;9108;53.204;10.424;2023-07-13T12:54:53;8.63;;;2.13;;
17965;SDS011;9108;53.204;10.424;2023-07-13T12:57:22;7.88;;;1.83;;
17965;SDS011;9108;53.204;10.424;2023-07-13T12:59:51;6.68;;;1.90;;
17965;SDS011;9108;53.204;10.424;2023-07-13T13:02:21;6.10;;;2.00;;
17965;SDS011;9108;53.204;10.424;2023-07-13T13:04:49;5.18;;;1.73;;
17965;SDS011;9108;53.204;10.424;2023-07-13T13:07:16;5.95;;;1.75;;
17965;SDS011;9108;53.204;10.424;2023-07-13T13:09:45;7.30;;;1.63;;
17965;SDS011;9108;53.204;10.424;2023-07-13T13:12:13;5.72;;;1.60;;
17965;SDS011;9108;53.204;10.424;2023-07-13T13:14:42;6.93;;;1.60;;
17965;SDS011;9108;53.204;10.424;2023-07-13T13:17:14;5.70;;;1.98;;
17965;SDS011;9108;53.204;10.424;2023-07-13T13:19:44;5.03;;;1.90;;
17965;SDS011;9108;53.204;10.424;2023-07-13T13:22:11;6.55;;;2.10;;
17965;SDS011;9108;53.204;10.424;2023-07-13T13:24:39;5.00;;;2.00;;
17965;SDS011;9108;53.204;10.424;2023-07-13T13:27:09;5.53;;;2.30;;
17965;SDS011;9108;53.204;10.424;2023-07-13T13:29:41;6.15;;;2.28;;
17965;SDS011;9108;53.204;10.424;2023-07-13T13:32:09;8.77;;;2.80;;
17965;SDS011;9108;53.204;10.424;2023-07-13T13:34:38;5.05;;;2.40;;
17965;SDS011;9108;53.204;10.424;2023-07-13T13:37:08;6.35;;;2.47;;
17965;SDS011;9108;53.204;10.424;2023-07-13T13:39:43;9.38;;;2.63;;
17965;SDS011;9108;53.204;10.424;2023-07-13T13:42:10;7.72;;;2.50;;
17965;SDS011;9108;53.204;10.424;2023-07-13T13:44:37;8.23;;;2.63;;
17965;SDS011;9108;53.204;10.424;2023-07-13T13:47:09;7.30;;;2.35;;
17965;SDS011;9108;53.204;10.424;2023-07-13T13:49:43;6.63;;;2.33;;
17965;SDS011;9108;53.204;10.424;2023-07-13T13:52:10;6.03;;;2.30;;
17965;SDS011;9108;53.204;10.424;2023-07-13T13:54:38;6.88;;;2.30;;
17965;SDS011;9108;53.204;10.424;2023-07-13T13:57:05;8.40;;;2.20;;
17965;SDS011;9108;53.204;10.424;2023-07-13T13:59:32;7.50;;;2.40;;
17965;SDS011;9108;53.204;10.424;2023-07-13T14:02:08;6.70;;;2.30;;
17965;SDS011;9108;53.204;10.424;2023-07-13T14:04:38;6.85;;;2.50;;
17965;SDS011;9108;53.204;10.424;2023-07-13T14:07:05;6.50;;;2.25;;
17965;SDS011;9108;53.204;10.424;2023-07-13T14:09:32;8.20;;;2.40;;
17965;SDS011;9108;53.204;10.424;2023-07-13T14:11:59;7.13;;;2.30;;
17965;SDS011;9108;53.204;10.424;2023-07-13T14:14:27;5.40;;;2.22;;
17965;SDS011;9108;53.204;10.424;2023-07-13T14:16:55;8.00;;;2.30;;
17965;SDS011;9108;53.204;10.424;2023-07-13T14:19:23;7.43;;;2.47;;
17965;SDS011;9108;53.204;10.424;2023-07-13T14:21:51;6.30;;;2.50;;
17965;SDS011;9108;53.204;10.424;2023-07-13T14:24:18;7.47;;;2.58;;
17965;SDS011;9108;53.204;10.424;2023-07-13T14:26:46;5.83;;;2.20;;
17965;SDS011;9108;53.204;10.424;2023-07-13T14:29:14;4.10;;;2.00;;
17965;SDS011;9108;53.204;10.424;2023-07-13T14:31:42;5.13;;;2.20;;
17965;SDS011;9108;53.204;10.424;2023-07-13T14:34:09;6.40;;;2.17;;
17965;SDS011;9108;53.204;10.424;2023-07-13T14:36:39;5.00;;;2.20;;
17965;SDS011;9108;53.204;10.424;2023-07-13T14:39:10;4.65;;;2.05;;
17965;SDS011;9108;53.204;10.424;2023-07-13T14:41:38;7.80;;;2.50;;
17965;SDS011;9108;53.204;10.424;2023-07-13T14:44:08;10.38;;;2.80;;
17965;SDS011;9108;53.204;10.424;2023-07-13T14:46:36;6.30;;;2.70;;
17965;SDS011;9108;53.204;10.424;2023-07-13T14:49:04;5.82;;;2.40;;
17965;SDS011;9108;53.204;10.424;2023-07-13T14:51:31;6.77;;;2.73;;
17965;SDS011;9108;53.204;10.424;2023-07-13T14:54:02;5.70;;;2.40;;
17965;SDS011;9108;53.204;10.424;2023-07-13T14:56:29;6.60;;;2.13;;
17965;SDS011;9108;53.204;10.424;2023-07-13T14:58:57;5.03;;;2.13;;
17965;SDS011;9108;53.204;10.424;2023-07-13T15:01:24;4.18;;;2.20;;
17965;SDS011;9108;53.204;10.424;2023-07-13T15:03:51;6.07;;;2.10;;
17965;SDS011;9108;53.204;10.424;2023-07-13T15:06:19;5.25;;;2.00;;
17965;SDS011;9108;53.204;10.424;2023-07-13T15:08:46;5.57;;;1.90;;
17965;SDS011;9108;53.204;10.424;2023-07-13T15:11:15;5.50;;;1.98;;
17965;SDS011;9108;53.204;10.424;2023-07-13T15:13:43;6.22;;;1.90;;
17965;SDS011;9108;53.204;10.424;2023-07-13T15:16:13;3.85;;;1.60;;
17965;SDS011;9108;53.204;10.424;2023-07-13T15:18:42;4.55;;;1.50;;
17965;SDS011;9108;53.204;10.424;2023-07-13T15:21:09;3.30;;;1.50;;
17965;SDS011;9108;53.204;10.424;2023-07-13T15:23:39;4.65;;;1.52;;
17965;SDS011;9108;53.204;10.424;2023-07-13T15:26:07;3.10;;;1.40;;
17965;SDS011;9108;53.204;10.424;2023-07-13T15:28:36;5.53;;;1.55;;
17965;SDS011;9108;53.204;10.424;2023-07-13T15:31:04;4.47;;;1.42;;
17965;SDS011;9108;53.204;10.424;2023-07-13T15:33:33;3.27;;;1.30;;
17965;SDS011;9108;53.204;10.424;2023-07-13T15:36:01;5.05;;;1.30;;